Terminal Aerodrome Forecast
Issued by NWS

Home | Current Version | Previous Version | Text Only | Print | Product List | Glossary On
Versions: 1 2 3 4 5 6 7 8 9 10 11 12
000
FTUS44 KTSA 041120
TAFXNA
TAF
KXNA 041120Z 0412/0512 VRB04KT P6SM SCT090 BKN200
     FM041500 21007KT P6SM BKN250
     FM050000 14005KT P6SM OVC100 PROB30 0500/0506 3SM -TSRA
      BKN050CB
     FM050600 VRB03KT P6SM OVC100 PROB30 0506/0512 3SM -TSRA
      BKN050CB=

USA.gov is the U.S. government's official web portal to all federal, state and local government web resources and services.